createdAt,value
2022-10-28T00:02:31.381Z,18.08
2022-10-28T00:05:34.893Z,20.07
2022-10-28T00:08:39.027Z,20.55
2022-10-28T00:11:41.755Z,28.88
2022-10-28T00:14:44.152Z,35.17
2022-10-28T00:17:46.555Z,19.90
2022-10-28T00:20:48.935Z,25.37
2022-10-28T00:23:51.470Z,20.75
2022-10-28T00:26:53.776Z,18.40
2022-10-28T00:29:56.956Z,15.98
2022-10-28T00:32:59.336Z,14.30
2022-10-28T00:36:29.029Z,14.77
2022-10-28T00:39:31.473Z,14.45
2022-10-28T00:42:33.844Z,16.45
2022-10-28T00:45:36.212Z,18.63
2022-10-28T00:48:41.302Z,25.10
2022-10-28T00:51:44.556Z,20.53
2022-10-28T00:54:47.595Z,17.23
2022-10-28T00:57:52.095Z,15.93
2022-10-28T01:00:55.778Z,15.00
2022-10-28T01:03:58.321Z,15.10
2022-10-28T01:07:01.912Z,14.07
2022-10-28T01:10:04.529Z,13.85
2022-10-28T01:13:14.580Z,14.57
2022-10-28T01:17:02.830Z,14.75
2022-10-28T01:20:41.777Z,22.15
2022-10-28T01:24:15.838Z,33.17
2022-10-28T01:27:44.576Z,25.05
2022-10-28T01:31:04.870Z,20.58
2022-10-28T01:34:12.621Z,17.38
2022-10-28T01:37:19.998Z,17.52
2022-10-28T01:40:43.871Z,16.00
2022-10-28T01:44:13.145Z,16.40
2022-10-28T01:47:40.329Z,14.48
2022-10-28T01:50:51.393Z,14.93
2022-10-28T01:53:55.701Z,14.00
2022-10-28T01:56:58.826Z,15.80
2022-10-28T02:00:01.898Z,19.65
2022-10-28T02:03:16.586Z,15.50
2022-10-28T02:06:21.301Z,15.07
2022-10-28T02:10:02.751Z,13.07
2022-10-28T02:13:11.797Z,14.93
2022-10-28T02:16:23.604Z,15.50
2022-10-28T02:19:37.460Z,14.65
2022-10-28T02:22:39.831Z,13.75
2022-10-28T02:25:56.252Z,13.18
2022-10-28T02:29:13.708Z,13.53
2022-10-28T02:32:20.042Z,13.60
2022-10-28T02:35:43.640Z,14.32
2022-10-28T02:38:49.100Z,14.40
2022-10-28T02:42:11.175Z,12.95
2022-10-28T02:45:19.768Z,13.87
2022-10-28T02:48:26.750Z,13.82
2022-10-28T02:51:35.046Z,16.30
2022-10-28T02:54:58.787Z,15.35
2022-10-28T02:58:01.272Z,15.70
2022-10-28T03:01:03.678Z,17.43
2022-10-28T03:04:06.380Z,17.20
2022-10-28T03:07:08.722Z,14.85
2022-10-28T03:10:11.297Z,13.30
2022-10-28T03:13:13.616Z,15.70
2022-10-28T03:16:15.967Z,16.63
2022-10-28T03:19:18.329Z,15.75
2022-10-28T03:22:20.740Z,16.55
2022-10-28T03:25:23.092Z,15.15
2022-10-28T03:28:25.424Z,13.35
2022-10-28T03:31:27.892Z,12.27
2022-10-28T03:34:30.893Z,10.82
2022-10-28T03:37:33.840Z,11.55
2022-10-28T03:40:36.967Z,13.98
2022-10-28T03:43:39.731Z,20.27
2022-10-28T03:46:42.165Z,21.03
2022-10-28T03:49:44.663Z,20.38
2022-10-28T03:52:47.121Z,20.25
2022-10-28T03:55:57.359Z,19.90
2022-10-28T03:59:00.577Z,21.48
2022-10-28T04:02:03.141Z,20.70
2022-10-28T04:05:05.890Z,19.85
2022-10-28T04:08:09.085Z,20.13
2022-10-28T04:11:12.520Z,21.63
2022-10-28T04:14:15.625Z,21.08
2022-10-28T04:17:17.969Z,25.07
2022-10-28T04:20:20.487Z,29.30
2022-10-28T04:23:22.944Z,36.60
2022-10-28T04:26:25.457Z,29.08
2022-10-28T04:29:29.222Z,23.05
2022-10-28T04:32:32.267Z,21.70
2022-10-28T04:35:34.739Z,20.13
2022-10-28T04:38:37.351Z,18.92
2022-10-28T04:41:40.046Z,21.30
2022-10-28T04:44:42.473Z,24.75
2022-10-28T04:47:44.864Z,23.80
2022-10-28T04:50:47.899Z,20.55
2022-10-28T04:53:50.855Z,37.35
2022-10-28T04:56:55.585Z,36.28
2022-10-28T04:59:58.499Z,25.08
2022-10-28T05:03:02.481Z,23.10
2022-10-28T05:06:05.293Z,25.55
2022-10-28T05:09:07.980Z,19.65
2022-10-28T05:12:10.485Z,17.88
2022-10-28T05:15:14.376Z,18.60
2022-10-28T05:18:17.157Z,17.40
2022-10-28T05:21:19.643Z,29.88
2022-10-28T05:24:22.233Z,19.27
2022-10-28T05:27:24.770Z,23.27
2022-10-28T05:30:28.074Z,23.85
2022-10-28T05:33:30.569Z,20.60
2022-10-28T05:36:33.148Z,20.00
2022-10-28T05:39:35.964Z,21.17
2022-10-28T05:42:42.590Z,19.08
2022-10-28T05:45:45.222Z,18.13
2022-10-28T05:48:47.915Z,18.37
2022-10-28T05:51:50.438Z,22.20
2022-10-28T05:54:52.855Z,25.05
2022-10-28T05:57:56.374Z,25.35
2022-10-28T06:00:59.731Z,33.95
2022-10-28T06:04:02.640Z,20.37
2022-10-28T06:07:05.353Z,14.07
2022-10-28T06:10:09.315Z,15.88
2022-10-28T06:13:15.292Z,12.93
2022-10-28T06:16:17.662Z,11.20
2022-10-28T06:19:20.098Z,11.27
2022-10-28T06:22:22.492Z,11.30
2022-10-28T06:25:25.471Z,11.73
2022-10-28T06:28:28.831Z,13.10
2022-10-28T06:31:31.939Z,11.02
2022-10-28T06:34:34.370Z,13.00
2022-10-28T06:37:36.805Z,16.77
2022-10-28T06:40:39.345Z,16.50
2022-10-28T06:43:41.719Z,14.75
2022-10-28T06:46:45.685Z,15.20
2022-10-28T06:49:49.556Z,15.60
2022-10-28T06:52:53.391Z,16.27
2022-10-28T06:55:57.146Z,13.82
2022-10-28T06:58:59.699Z,14.20
2022-10-28T07:02:02.992Z,14.27
2022-10-28T07:05:07.224Z,13.57
2022-10-28T07:08:10.139Z,12.38
2022-10-28T07:11:12.601Z,11.57
2022-10-28T07:14:15.050Z,12.98
2022-10-28T07:17:17.796Z,12.82
2022-10-28T07:20:20.826Z,12.83
2022-10-28T07:23:23.223Z,13.63
2022-10-28T07:26:26.285Z,13.88
2022-10-28T07:29:28.642Z,13.30
2022-10-28T07:32:34.992Z,12.70
2022-10-28T07:35:39.008Z,12.50
2022-10-28T07:38:43.430Z,12.98
2022-10-28T07:41:47.651Z,13.90
2022-10-28T07:44:50.107Z,24.90
2022-10-28T07:47:52.883Z,25.33
2022-10-28T07:50:55.469Z,24.87
2022-10-28T07:53:58.037Z,15.07
2022-10-28T07:57:00.468Z,21.45
2022-10-28T08:00:04.187Z,14.93
2022-10-28T08:03:12.819Z,17.88
2022-10-28T08:06:20.361Z,18.50
2022-10-28T08:09:22.760Z,48.38
2022-10-28T08:12:25.287Z,16.42
2022-10-28T08:15:28.880Z,16.80
2022-10-28T08:18:31.881Z,14.05
2022-10-28T08:21:34.333Z,17.47
2022-10-28T08:24:36.821Z,13.13
2022-10-28T08:27:40.678Z,13.48
2022-10-28T08:30:57.207Z,12.80
2022-10-28T08:34:06.492Z,12.48
2022-10-28T08:37:09.385Z,13.57
2022-10-28T08:40:14.991Z,13.80
2022-10-28T08:43:57.036Z,14.88
2022-10-28T08:47:18.624Z,13.93
2022-10-28T08:50:23.670Z,12.90
2022-10-28T08:53:29.554Z,12.40
2022-10-28T08:56:35.866Z,12.27
2022-10-28T08:59:40.474Z,14.95
2022-10-28T09:03:11.728Z,12.30
2022-10-28T09:06:14.341Z,12.60
2022-10-28T09:09:21.895Z,12.10
2022-10-28T09:12:42.685Z,13.07
2022-10-28T09:15:56.012Z,14.30
2022-10-28T09:19:04.117Z,12.73
2022-10-28T09:22:13.744Z,13.32
2022-10-28T09:25:39.549Z,15.23
2022-10-28T09:28:47.740Z,13.15
2022-10-28T09:31:57.904Z,10.90
2022-10-28T09:35:06.444Z,11.23
2022-10-28T09:38:16.348Z,12.02
2022-10-28T09:41:21.852Z,11.30
2022-10-28T09:44:39.479Z,11.27
2022-10-28T09:47:44.986Z,14.88
2022-10-28T09:50:50.592Z,12.10
2022-10-28T09:54:00.489Z,12.43
2022-10-28T09:57:03.784Z,11.43
2022-10-28T10:00:17.907Z,13.10
2022-10-28T10:03:21.439Z,12.23
2022-10-28T10:06:35.601Z,14.82
2022-10-28T10:09:39.170Z,12.65
2022-10-28T10:12:41.922Z,13.33
2022-10-28T10:15:51.455Z,14.98
2022-10-28T10:18:57.311Z,14.52
2022-10-28T10:21:59.707Z,15.85
2022-10-28T10:25:03.391Z,14.93
2022-10-28T10:28:14.919Z,15.87
2022-10-28T10:31:27.290Z,15.98
2022-10-28T10:34:30.673Z,14.73
2022-10-28T10:37:36.628Z,15.38
2022-10-28T10:40:48.954Z,14.27
2022-10-28T10:43:51.291Z,14.63
2022-10-28T10:47:04.904Z,14.20
2022-10-28T10:53:39.945Z,14.63
2022-10-28T10:56:43.017Z,14.43
2022-10-28T10:59:47.463Z,14.70
2022-10-28T11:02:53.524Z,14.23
2022-10-28T11:06:22.110Z,15.02
2022-10-28T11:09:35.557Z,14.57
2022-10-28T11:12:41.184Z,13.75
2022-10-28T11:15:43.518Z,14.73
2022-10-28T11:18:48.443Z,15.43
2022-10-28T11:22:12.528Z,21.25
2022-10-28T11:25:43.208Z,24.23
2022-10-28T11:29:01.662Z,17.55
2022-10-28T11:32:17.312Z,16.80
2022-10-28T11:35:23.786Z,23.65
2022-10-28T11:38:45.711Z,18.65
2022-10-28T11:42:02.263Z,17.88
2022-10-28T11:45:18.690Z,16.17
2022-10-28T11:48:24.087Z,15.30
2022-10-28T11:51:48.296Z,16.40
2022-10-28T11:55:04.063Z,17.27
2022-10-28T11:58:21.200Z,15.45
2022-10-28T12:01:29.868Z,17.13
2022-10-28T12:05:02.978Z,17.53
2022-10-28T12:08:27.736Z,15.18
2022-10-28T12:11:42.152Z,13.60
2022-10-28T12:14:44.512Z,12.43
2022-10-28T12:17:59.224Z,12.65
2022-10-28T12:21:17.208Z,13.90
2022-10-28T12:24:21.474Z,13.65
2022-10-28T12:27:27.812Z,15.77
2022-10-28T12:30:38.706Z,17.33
2022-10-28T12:33:45.872Z,16.55
2022-10-28T12:36:50.840Z,15.10
2022-10-28T12:40:17.377Z,18.58
2022-10-28T12:43:24.253Z,15.48
2022-10-28T12:50:16.829Z,14.18
2022-10-28T12:53:30.920Z,14.23
2022-10-28T12:56:36.979Z,12.82
2022-10-28T12:59:44.027Z,14.30
2022-10-28T13:03:01.576Z,14.35
2022-10-28T13:09:51.635Z,23.03
2022-10-28T13:13:33.099Z,17.38
2022-10-28T13:17:11.188Z,14.02
2022-10-28T13:20:19.345Z,15.02
2022-10-28T13:23:30.331Z,13.73
2022-10-28T13:26:36.728Z,13.27
2022-10-28T13:29:41.230Z,14.18
2022-10-28T13:32:44.158Z,14.48
2022-10-28T13:35:47.197Z,14.35
2022-10-28T13:38:54.727Z,14.15
2022-10-28T13:42:23.173Z,13.73
2022-10-28T13:45:44.143Z,12.27
2022-10-28T13:48:47.913Z,12.90
2022-10-28T13:51:51.968Z,11.98
2022-10-28T13:54:59.174Z,13.15
2022-10-28T13:58:04.689Z,13.03
2022-10-28T14:01:44.410Z,14.05
2022-10-28T14:05:02.490Z,17.70
2022-10-28T14:08:17.302Z,14.35
2022-10-28T14:11:24.152Z,14.98
2022-10-28T14:14:26.535Z,12.30
2022-10-28T14:17:37.357Z,11.88
2022-10-28T14:21:01.684Z,12.50
2022-10-28T14:24:04.238Z,11.73
2022-10-28T14:27:08.717Z,12.40
2022-10-28T14:30:17.243Z,11.97
2022-10-28T14:33:21.089Z,14.25
2022-10-28T14:36:38.033Z,16.00
2022-10-28T14:39:45.572Z,18.55
2022-10-28T14:43:16.013Z,17.67
2022-10-28T14:46:46.262Z,19.80
2022-10-28T14:50:00.686Z,18.10
2022-10-28T14:53:06.101Z,19.65
2022-10-28T14:56:27.886Z,16.98
2022-10-28T14:59:35.831Z,23.00
2022-10-28T15:02:38.886Z,19.83
2022-10-28T15:05:41.352Z,18.65
2022-10-28T15:08:44.203Z,22.00
2022-10-28T15:11:50.763Z,23.27
2022-10-28T15:14:58.114Z,28.88
2022-10-28T15:18:00.888Z,36.97
2022-10-28T15:21:11.116Z,33.05
2022-10-28T15:24:13.786Z,29.90
2022-10-28T15:27:16.275Z,23.98
2022-10-28T15:30:23.849Z,31.13
2022-10-28T15:33:37.034Z,28.10
2022-10-28T15:36:39.554Z,28.13
2022-10-28T15:39:41.957Z,28.00
2022-10-28T15:42:53.606Z,26.23
2022-10-28T15:46:15.439Z,25.83
2022-10-28T15:49:55.650Z,22.27
2022-10-28T15:53:07.077Z,25.55
2022-10-28T15:56:15.318Z,23.55
2022-10-28T15:59:21.696Z,21.25
2022-10-28T16:02:41.048Z,18.33
2022-10-28T16:05:44.978Z,17.37
2022-10-28T16:08:48.297Z,18.20
2022-10-28T16:11:53.345Z,17.25
2022-10-28T16:14:59.460Z,18.67
2022-10-28T16:18:01.991Z,19.17
2022-10-28T16:21:04.713Z,16.90
2022-10-28T16:24:09.159Z,20.20
2022-10-28T16:27:32.868Z,19.63
2022-10-28T16:30:35.297Z,21.15
2022-10-28T16:33:38.447Z,23.60
2022-10-28T16:36:40.779Z,20.07
2022-10-28T16:39:43.319Z,20.05
2022-10-28T16:42:48.759Z,18.05
2022-10-28T16:45:52.796Z,18.05
2022-10-28T16:48:55.181Z,20.45
2022-10-28T16:51:57.962Z,19.10
2022-10-28T16:55:00.553Z,20.17
2022-10-28T16:58:03.062Z,22.85
2022-10-28T17:01:05.838Z,23.25
2022-10-28T17:04:08.997Z,22.80
2022-10-28T17:07:16.125Z,20.87
2022-10-28T17:10:18.942Z,20.98
2022-10-28T17:13:21.449Z,18.58
2022-10-28T17:16:23.875Z,22.45
2022-10-28T17:19:26.923Z,20.80
2022-10-28T17:22:30.992Z,20.77
2022-10-28T17:25:34.268Z,20.10
2022-10-28T17:28:36.969Z,21.25
2022-10-28T17:31:39.397Z,21.20
2022-10-28T17:34:41.814Z,21.23
2022-10-28T17:37:44.269Z,20.43
2022-10-28T17:40:54.762Z,21.77
2022-10-28T17:43:57.445Z,22.85
2022-10-28T17:47:01.092Z,30.15
2022-10-28T17:50:04.075Z,23.23
2022-10-28T17:53:06.460Z,22.63
2022-10-28T17:56:09.765Z,24.05
2022-10-28T17:59:12.470Z,25.77
2022-10-28T18:02:15.047Z,23.00
2022-10-28T18:05:17.557Z,24.13
2022-10-28T18:08:20.784Z,25.13
2022-10-28T18:11:23.114Z,23.17
2022-10-28T18:14:25.584Z,28.00
2022-10-28T18:17:29.337Z,31.52
2022-10-28T18:20:32.537Z,34.63
2022-10-28T18:23:35.639Z,33.87
2022-10-28T18:26:38.814Z,29.88
2022-10-28T18:29:41.524Z,31.02
2022-10-28T18:32:43.891Z,26.30
2022-10-28T18:38:54.919Z,27.70
2022-10-28T18:41:58.805Z,29.00
2022-10-28T18:45:02.727Z,28.17
2022-10-28T18:48:06.676Z,29.00
2022-10-28T18:51:13.542Z,28.30
2022-10-28T18:54:18.079Z,25.90
2022-10-28T18:57:22.107Z,28.10
2022-10-28T19:00:24.582Z,24.20
2022-10-28T19:03:27.294Z,24.65
2022-10-28T19:06:32.610Z,24.73
2022-10-28T19:09:36.136Z,27.70
2022-10-28T19:12:42.857Z,27.98
2022-10-28T19:15:47.737Z,27.85
2022-10-28T19:18:57.317Z,26.38
2022-10-28T19:22:01.276Z,25.70
2022-10-28T19:25:04.789Z,24.50
2022-10-28T19:28:07.232Z,24.77
2022-10-28T19:31:14.175Z,24.27
2022-10-28T19:34:16.541Z,25.42
2022-10-28T19:37:19.013Z,25.15
2022-10-28T19:40:21.359Z,24.43
2022-10-28T19:43:23.813Z,25.33
2022-10-28T19:46:30.963Z,24.60
2022-10-28T19:49:39.292Z,22.63
2022-10-28T19:52:44.386Z,23.85
2022-10-28T19:55:48.929Z,24.80
2022-10-28T19:58:54.341Z,25.50
2022-10-28T20:01:56.779Z,23.85
2022-10-28T20:04:59.226Z,24.52
2022-10-28T20:08:01.816Z,26.63
2022-10-28T20:11:06.919Z,26.13
2022-10-28T20:14:12.383Z,25.40
2022-10-28T20:17:15.447Z,25.15
2022-10-28T20:20:18.212Z,24.63
2022-10-28T20:23:20.629Z,24.35
2022-10-28T20:26:28.247Z,25.67
2022-10-28T20:29:31.202Z,27.17
2022-10-28T20:32:34.861Z,26.75
2022-10-28T20:35:38.550Z,26.98
2022-10-28T20:38:41.647Z,23.77
2022-10-28T20:41:45.927Z,22.87
2022-10-28T20:44:48.281Z,20.52
2022-10-28T20:47:52.783Z,20.50
2022-10-28T20:50:57.066Z,18.08
2022-10-28T20:53:59.717Z,17.15
2022-10-28T20:57:02.115Z,17.67
2022-10-28T21:00:06.375Z,17.60
2022-10-28T21:03:11.649Z,18.13
2022-10-28T21:06:15.632Z,19.20
2022-10-28T21:09:18.240Z,20.30
2022-10-28T21:12:20.575Z,17.53
2022-10-28T21:15:22.991Z,17.23
2022-10-28T21:18:25.619Z,17.70
2022-10-28T21:21:31.877Z,18.67
2022-10-28T21:24:34.275Z,18.27
2022-10-28T21:27:36.619Z,18.60
2022-10-28T21:30:39.001Z,19.15
2022-10-28T21:33:42.414Z,18.52
2022-10-28T21:36:44.889Z,19.92
2022-10-28T21:39:55.069Z,20.60
2022-10-28T21:42:59.555Z,20.27
2022-10-28T21:46:02.108Z,17.67
2022-10-28T21:49:05.379Z,18.15
2022-10-28T21:52:08.704Z,18.00
2022-10-28T21:55:20.477Z,16.42
2022-10-28T21:58:36.332Z,17.87
2022-10-28T22:01:38.785Z,18.00
2022-10-28T22:04:41.258Z,21.65
2022-10-28T22:07:43.693Z,21.08
2022-10-28T22:10:46.112Z,22.15
2022-10-28T22:13:55.637Z,18.70
2022-10-28T22:16:57.995Z,19.63
2022-10-28T22:20:00.450Z,17.05
2022-10-28T22:23:02.959Z,18.23
2022-10-28T22:26:07.330Z,18.05
2022-10-28T22:29:09.731Z,19.73
2022-10-28T22:32:12.074Z,18.58
2022-10-28T22:35:14.525Z,17.73
2022-10-28T22:38:16.873Z,20.25
2022-10-28T22:41:30.384Z,19.98
2022-10-28T22:44:32.711Z,18.47
2022-10-28T22:47:35.150Z,17.90
2022-10-28T22:50:37.606Z,17.92
2022-10-28T22:53:40.654Z,18.17
2022-10-28T22:56:45.868Z,17.13
2022-10-28T22:59:48.873Z,19.33
2022-10-28T23:02:51.300Z,20.67
2022-10-28T23:05:54.985Z,32.22
2022-10-28T23:08:58.979Z,28.05
2022-10-28T23:12:01.858Z,27.80
2022-10-28T23:15:05.363Z,20.13
2022-10-28T23:18:08.292Z,20.13
2022-10-28T23:21:12.623Z,19.98
2022-10-28T23:24:15.023Z,19.42
2022-10-28T23:27:17.463Z,23.67
2022-10-28T23:30:19.880Z,22.03
2022-10-28T23:33:22.312Z,20.33
2022-10-28T23:36:25.888Z,21.17
2022-10-28T23:39:30.957Z,21.35
2022-10-28T23:42:33.717Z,20.60
2022-10-28T23:45:36.018Z,20.87
2022-10-28T23:48:38.558Z,22.20
2022-10-28T23:51:40.974Z,24.52
2022-10-28T23:54:43.341Z,22.80
2022-10-28T23:57:45.719Z,21.13
